sensor_id;sensor_type;location;lat;lon;timestamp;P1;durP1;ratioP1;P2;durP2;ratioP2
71902;SDS011;59778;50.310;18.780;2022-08-21T00:01:26;36.73;;;21.00;;
71902;SDS011;59778;50.310;18.780;2022-08-21T00:16:49;33.27;;;19.03;;
71902;SDS011;59778;50.310;18.780;2022-08-21T00:32:10;29.53;;;17.17;;
71902;SDS011;59778;50.310;18.780;2022-08-21T00:47:32;29.20;;;15.73;;
71902;SDS011;59778;50.310;18.780;2022-08-21T01:02:53;24.47;;;15.27;;
71902;SDS011;59778;50.310;18.780;2022-08-21T01:18:15;28.50;;;15.20;;
71902;SDS011;59778;50.310;18.780;2022-08-21T01:33:37;24.87;;;13.50;;
71902;SDS011;59778;50.310;18.780;2022-08-21T01:48:58;17.73;;;10.37;;
71902;SDS011;59778;50.310;18.780;2022-08-21T02:04:20;16.60;;;9.57;;
71902;SDS011;59778;50.310;18.780;2022-08-21T02:19:41;19.70;;;10.00;;
71902;SDS011;59778;50.310;18.780;2022-08-21T02:35:03;17.50;;;10.33;;
71902;SDS011;59778;50.310;18.780;2022-08-21T02:50:26;22.70;;;11.77;;
71902;SDS011;59778;50.310;18.780;2022-08-21T03:05:49;23.83;;;12.87;;
71902;SDS011;59778;50.310;18.780;2022-08-21T03:21:10;21.40;;;13.87;;
71902;SDS011;59778;50.310;18.780;2022-08-21T03:36:33;27.23;;;15.90;;
71902;SDS011;59778;50.310;18.780;2022-08-21T03:51:54;32.93;;;19.07;;
71902;SDS011;59778;50.310;18.780;2022-08-21T04:07:15;38.03;;;21.60;;
71902;SDS011;59778;50.310;18.780;2022-08-21T04:22:38;43.87;;;21.93;;
71902;SDS011;59778;50.310;18.780;2022-08-21T04:37:59;40.43;;;21.20;;
71902;SDS011;59778;50.310;18.780;2022-08-21T04:53:22;38.17;;;21.83;;
71902;SDS011;59778;50.310;18.780;2022-08-21T05:08:47;50.57;;;24.47;;
71902;SDS011;59778;50.310;18.780;2022-08-21T05:24:11;43.67;;;23.83;;
71902;SDS011;59778;50.310;18.780;2022-08-21T05:39:32;50.23;;;22.13;;
71902;SDS011;59778;50.310;18.780;2022-08-21T05:54:53;20.33;;;10.20;;
71902;SDS011;59778;50.310;18.780;2022-08-21T06:10:15;15.43;;;8.10;;
71902;SDS011;59778;50.310;18.780;2022-08-21T06:25:36;9.47;;;4.63;;
71902;SDS011;59778;50.310;18.780;2022-08-21T06:40:57;4.40;;;1.70;;
71902;SDS011;59778;50.310;18.780;2022-08-21T06:56:18;3.50;;;1.13;;
71902;SDS011;59778;50.310;18.780;2022-08-21T07:11:40;2.63;;;0.90;;
71902;SDS011;59778;50.310;18.780;2022-08-21T07:27:01;2.07;;;1.00;;
71902;SDS011;59778;50.310;18.780;2022-08-21T07:42:23;2.47;;;1.00;;
71902;SDS011;59778;50.310;18.780;2022-08-21T07:57:44;2.10;;;0.80;;
71902;SDS011;59778;50.310;18.780;2022-08-21T08:13:05;2.57;;;1.20;;
71902;SDS011;59778;50.310;18.780;2022-08-21T08:28:26;2.13;;;1.20;;
71902;SDS011;59778;50.310;18.780;2022-08-21T08:43:54;2.63;;;1.20;;
71902;SDS011;59778;50.310;18.780;2022-08-21T08:59:21;3.40;;;1.10;;
71902;SDS011;59778;50.310;18.780;2022-08-21T09:15:09;1.70;;;1.20;;
71902;SDS011;59778;50.310;18.780;2022-08-21T09:30:41;3.00;;;1.60;;
71902;SDS011;59778;50.310;18.780;2022-08-21T10:01:31;3.40;;;1.90;;
71902;SDS011;59778;50.310;18.780;2022-08-21T10:17:14;5.47;;;3.10;;
71902;SDS011;59778;50.310;18.780;2022-08-21T10:48:55;7.63;;;4.80;;
71902;SDS011;59778;50.310;18.780;2022-08-21T11:04:20;5.23;;;3.03;;
71902;SDS011;59778;50.310;18.780;2022-08-21T11:20:12;5.77;;;2.60;;
71902;SDS011;59778;50.310;18.780;2022-08-21T11:35:45;5.63;;;1.97;;
71902;SDS011;59778;50.310;18.780;2022-08-21T11:51:13;3.40;;;1.70;;
71902;SDS011;59778;50.310;18.780;2022-08-21T12:06:41;3.57;;;2.00;;
71902;SDS011;59778;50.310;18.780;2022-08-21T12:52:57;4.33;;;2.20;;
71902;SDS011;59778;50.310;18.780;2022-08-21T13:08:25;4.60;;;2.53;;
71902;SDS011;59778;50.310;18.780;2022-08-21T13:23:48;4.60;;;2.50;;
71902;SDS011;59778;50.310;18.780;2022-08-21T13:39:11;4.00;;;2.03;;
71902;SDS011;59778;50.310;18.780;2022-08-21T13:54:36;4.93;;;2.30;;
71902;SDS011;59778;50.310;18.780;2022-08-21T14:10:07;3.87;;;2.10;;
71902;SDS011;59778;50.310;18.780;2022-08-21T14:25:42;3.97;;;1.87;;
71902;SDS011;59778;50.310;18.780;2022-08-21T14:41:14;4.43;;;2.40;;
71902;SDS011;59778;50.310;18.780;2022-08-21T14:56:38;7.50;;;2.40;;
71902;SDS011;59778;50.310;18.780;2022-08-21T15:12:00;5.30;;;3.03;;
71902;SDS011;59778;50.310;18.780;2022-08-21T15:27:22;7.43;;;3.30;;
71902;SDS011;59778;50.310;18.780;2022-08-21T15:42:43;6.67;;;3.37;;
71902;SDS011;59778;50.310;18.780;2022-08-21T15:58:05;9.57;;;4.20;;
71902;SDS011;59778;50.310;18.780;2022-08-21T16:13:28;10.70;;;5.30;;
71902;SDS011;59778;50.310;18.780;2022-08-21T16:28:54;9.87;;;5.53;;
71902;SDS011;59778;50.310;18.780;2022-08-21T16:44:18;12.23;;;6.33;;
71902;SDS011;59778;50.310;18.780;2022-08-21T16:59:41;12.03;;;6.10;;
71902;SDS011;59778;50.310;18.780;2022-08-21T17:15:07;11.17;;;5.67;;
71902;SDS011;59778;50.310;18.780;2022-08-21T17:30:35;5.67;;;2.60;;
71902;SDS011;59778;50.310;18.780;2022-08-21T17:45:58;6.73;;;3.13;;
71902;SDS011;59778;50.310;18.780;2022-08-21T18:01:19;5.20;;;2.90;;
71902;SDS011;59778;50.310;18.780;2022-08-21T18:16:41;5.43;;;2.20;;
71902;SDS011;59778;50.310;18.780;2022-08-21T18:32:03;3.60;;;1.80;;
71902;SDS011;59778;50.310;18.780;2022-08-21T18:47:29;8.77;;;2.17;;
71902;SDS011;59778;50.310;18.780;2022-08-21T19:02:56;5.83;;;1.90;;
71902;SDS011;59778;50.310;18.780;2022-08-21T19:18:18;4.30;;;1.60;;
71902;SDS011;59778;50.310;18.780;2022-08-21T19:33:49;4.60;;;1.87;;
71902;SDS011;59778;50.310;18.780;2022-08-21T19:49:14;3.60;;;1.73;;
71902;SDS011;59778;50.310;18.780;2022-08-21T20:04:37;6.43;;;1.73;;
71902;SDS011;59778;50.310;18.780;2022-08-21T20:19:58;5.53;;;1.80;;
71902;SDS011;59778;50.310;18.780;2022-08-21T20:35:19;3.13;;;1.80;;
71902;SDS011;59778;50.310;18.780;2022-08-21T20:50:43;3.00;;;1.37;;
71902;SDS011;59778;50.310;18.780;2022-08-21T21:06:08;3.20;;;1.40;;
71902;SDS011;59778;50.310;18.780;2022-08-21T21:21:35;4.30;;;1.60;;
71902;SDS011;59778;50.310;18.780;2022-08-21T21:37:07;3.50;;;1.33;;
71902;SDS011;59778;50.310;18.780;2022-08-21T22:38:42;2.47;;;0.73;;
71902;SDS011;59778;50.310;18.780;2022-08-21T22:54:04;1.70;;;0.63;;
71902;SDS011;59778;50.310;18.780;2022-08-21T23:09:32;1.73;;;0.70;;
71902;SDS011;59778;50.310;18.780;2022-08-21T23:25:06;3.40;;;0.90;;
71902;SDS011;59778;50.310;18.780;2022-08-21T23:40:55;2.33;;;1.10;;
